createdAt,value
2023-08-24T00:00:46.415Z,16.05
2023-08-24T00:01:46.404Z,16.05
2023-08-24T00:02:46.411Z,16.13
2023-08-24T00:03:46.452Z,16.16
2023-08-24T00:04:46.384Z,16.16
2023-08-24T00:05:46.370Z,16.09
2023-08-24T00:06:46.369Z,16.08
2023-08-24T00:07:46.361Z,16.00
2023-08-24T00:08:46.386Z,15.98
2023-08-24T00:09:46.343Z,15.94
2023-08-24T00:10:46.341Z,15.92
2023-08-24T00:11:46.334Z,15.83
2023-08-24T00:12:46.352Z,15.86
2023-08-24T00:13:46.343Z,15.76
2023-08-24T00:14:46.322Z,15.83
2023-08-24T00:15:46.349Z,15.82
2023-08-24T00:16:46.299Z,15.79
2023-08-24T00:17:46.386Z,15.75
2023-08-24T00:18:46.285Z,15.76
2023-08-24T00:19:46.278Z,15.83
2023-08-24T00:20:46.260Z,15.86
2023-08-24T00:21:46.252Z,15.84
2023-08-24T00:22:46.281Z,15.98
2023-08-24T00:23:46.240Z,16.02
2023-08-24T00:24:46.227Z,16.02
2023-08-24T00:25:46.221Z,15.98
2023-08-24T00:26:46.205Z,15.94
2023-08-24T00:27:46.237Z,15.91
2023-08-24T00:28:46.193Z,15.95
2023-08-24T00:29:46.188Z,15.91
2023-08-24T00:30:46.180Z,15.88
2023-08-24T00:31:46.236Z,15.94
2023-08-24T00:32:46.223Z,15.86
2023-08-24T00:33:46.167Z,15.88
2023-08-24T00:34:46.140Z,16.04
2023-08-24T00:35:46.166Z,15.97
2023-08-24T00:36:46.152Z,16.01
2023-08-24T00:37:46.124Z,15.94
2023-08-24T00:38:46.109Z,15.83
2023-08-24T00:39:46.117Z,15.86
2023-08-24T00:40:46.101Z,15.92
2023-08-24T00:41:46.121Z,15.84
2023-08-24T00:42:46.063Z,15.80
2023-08-24T00:43:47.072Z,15.79
2023-08-24T00:44:46.059Z,15.75
2023-08-24T00:45:46.134Z,15.57
2023-08-24T00:46:46.078Z,15.51
2023-08-24T00:47:46.077Z,15.42
2023-08-24T00:48:46.039Z,15.37
2023-08-24T00:49:46.033Z,15.49
2023-08-24T00:50:46.047Z,15.33
2023-08-24T00:51:46.005Z,15.42
2023-08-24T00:52:45.995Z,15.42
2023-08-24T00:53:45.996Z,15.28
2023-08-24T00:54:45.991Z,15.35
2023-08-24T00:55:46.010Z,15.40
2023-08-24T00:56:45.976Z,15.54
2023-08-24T00:57:45.978Z,15.44
2023-08-24T00:58:45.954Z,15.54
2023-08-24T00:59:45.975Z,15.55
2023-08-24T01:00:45.981Z,15.68
2023-08-24T01:01:45.926Z,15.59
2023-08-24T01:02:45.974Z,15.57
2023-08-24T01:03:45.921Z,15.65
2023-08-24T01:04:45.941Z,15.68
2023-08-24T01:05:45.906Z,15.68
2023-08-24T01:06:45.921Z,15.61
2023-08-24T01:07:45.887Z,15.70
2023-08-24T01:08:45.875Z,15.68
2023-08-24T01:09:45.879Z,15.70
2023-08-24T01:10:46.869Z,15.75
2023-08-24T01:11:45.839Z,15.65
2023-08-24T01:12:46.839Z,15.76
2023-08-24T01:13:45.865Z,15.61
2023-08-24T01:14:45.847Z,15.68
2023-08-24T01:15:45.814Z,15.72
2023-08-24T01:16:45.847Z,15.67
2023-08-24T01:17:45.886Z,15.75
2023-08-24T01:18:45.813Z,15.67
2023-08-24T01:19:45.829Z,15.64
2023-08-24T01:20:45.804Z,15.70
2023-08-24T01:21:45.774Z,15.68
2023-08-24T01:22:45.755Z,15.59
2023-08-24T01:23:46.799Z,15.70
2023-08-24T01:24:45.754Z,15.58
2023-08-24T01:25:45.737Z,15.57
2023-08-24T01:26:45.733Z,15.52
2023-08-24T01:27:45.752Z,15.43
2023-08-24T01:28:45.740Z,15.44
2023-08-24T01:29:45.705Z,15.39
2023-08-24T01:30:46.749Z,15.47
2023-08-24T01:31:45.705Z,15.36
2023-08-24T01:32:45.738Z,15.37
2023-08-24T01:33:45.690Z,15.36
2023-08-24T01:34:45.670Z,15.31
2023-08-24T01:35:45.661Z,15.35
2023-08-24T01:36:45.650Z,15.33
2023-08-24T01:37:45.681Z,15.31
2023-08-24T01:38:45.644Z,15.17
2023-08-24T01:39:45.638Z,15.15
2023-08-24T01:40:45.635Z,15.21
2023-08-24T01:41:45.653Z,15.14
2023-08-24T01:42:45.659Z,15.22
2023-08-24T01:43:45.605Z,15.29
2023-08-24T01:44:45.591Z,15.25
2023-08-24T01:45:45.586Z,15.29
2023-08-24T01:46:45.636Z,15.19
2023-08-24T01:47:45.620Z,15.28
2023-08-24T01:48:45.663Z,15.28
2023-08-24T01:49:45.568Z,15.29
2023-08-24T01:50:45.556Z,15.36
2023-08-24T01:51:45.572Z,15.40
2023-08-24T01:52:45.548Z,15.29
2023-08-24T01:53:45.532Z,15.31
2023-08-24T01:54:45.515Z,15.39
2023-08-24T01:55:45.547Z,15.37
2023-08-24T01:56:45.556Z,15.29
2023-08-24T01:57:45.516Z,15.31
2023-08-24T01:58:45.493Z,15.29
2023-08-24T01:59:45.505Z,15.33
2023-08-24T02:00:45.522Z,15.27
2023-08-24T02:01:45.522Z,15.33
2023-08-24T02:02:45.543Z,15.29
2023-08-24T02:03:45.556Z,15.40
2023-08-24T02:04:45.462Z,15.31
2023-08-24T02:05:45.468Z,15.22
2023-08-24T02:06:45.446Z,15.29
2023-08-24T02:07:45.497Z,15.24
2023-08-24T02:08:45.449Z,15.33
2023-08-24T02:09:45.407Z,15.40
2023-08-24T02:10:45.428Z,15.37
2023-08-24T02:11:45.392Z,15.28
2023-08-24T02:12:45.382Z,15.27
2023-08-24T02:13:45.383Z,15.29
2023-08-24T02:14:45.391Z,15.39
2023-08-24T02:15:45.389Z,15.22
2023-08-24T02:16:45.375Z,15.27
2023-08-24T02:17:45.369Z,15.24
2023-08-24T02:18:45.345Z,15.25
2023-08-24T02:19:45.366Z,15.15
2023-08-24T02:20:45.332Z,15.18
2023-08-24T02:21:45.324Z,15.19
2023-08-24T02:22:45.314Z,15.19
2023-08-24T02:23:45.308Z,15.21
2023-08-24T02:24:45.322Z,15.21
2023-08-24T02:25:45.286Z,15.14
2023-08-24T02:26:45.276Z,15.22
2023-08-24T02:27:45.269Z,15.14
2023-08-24T02:28:45.282Z,15.17
2023-08-24T02:29:46.285Z,15.15
2023-08-24T02:30:45.253Z,15.14
2023-08-24T02:31:45.312Z,15.10
2023-08-24T02:32:45.261Z,15.11
2023-08-24T02:33:45.252Z,15.11
2023-08-24T02:34:45.251Z,15.15
2023-08-24T02:35:45.215Z,15.07
2023-08-24T02:36:45.197Z,15.04
2023-08-24T02:37:45.194Z,14.96
2023-08-24T02:38:45.218Z,14.97
2023-08-24T02:39:45.177Z,15.02
2023-08-24T02:40:45.208Z,14.96
2023-08-24T02:41:45.163Z,15.04
2023-08-24T02:42:45.156Z,15.14
2023-08-24T02:43:47.500Z,15.15
2023-08-24T02:44:45.134Z,15.09
2023-08-24T02:45:45.150Z,14.91
2023-08-24T02:46:45.115Z,14.91
2023-08-24T02:47:45.178Z,15.02
2023-08-24T02:48:45.146Z,14.92
2023-08-24T02:49:45.085Z,15.04
2023-08-24T02:50:45.082Z,14.88
2023-08-24T02:51:45.072Z,14.94
2023-08-24T02:52:45.088Z,14.96
2023-08-24T02:53:45.054Z,14.94
2023-08-24T02:54:45.048Z,14.92
2023-08-24T02:55:45.025Z,14.84
2023-08-24T02:56:46.059Z,14.96
2023-08-24T02:57:45.049Z,14.91
2023-08-24T02:58:45.016Z,14.91
2023-08-24T02:59:45.006Z,14.99
2023-08-24T03:00:45.001Z,14.97
2023-08-24T03:01:45.065Z,14.86
2023-08-24T03:02:45.056Z,14.97
2023-08-24T03:03:45.022Z,14.89
2023-08-24T03:04:44.963Z,14.92
2023-08-24T03:05:44.966Z,14.99
2023-08-24T03:06:44.991Z,14.97
2023-08-24T03:07:44.939Z,14.91
2023-08-24T03:08:44.935Z,14.94
2023-08-24T03:09:44.932Z,14.94
2023-08-24T03:10:44.921Z,14.97
2023-08-24T03:11:44.941Z,14.94
2023-08-24T03:12:44.905Z,14.88
2023-08-24T03:13:44.902Z,14.84
2023-08-24T03:14:44.902Z,14.88
2023-08-24T03:15:44.956Z,14.82
2023-08-24T03:16:44.917Z,14.77
2023-08-24T03:17:44.906Z,14.82
2023-08-24T03:18:44.897Z,14.85
2023-08-24T03:19:44.845Z,14.79
2023-08-24T03:20:44.869Z,14.78
2023-08-24T03:21:44.832Z,14.73
2023-08-24T03:22:44.827Z,14.69
2023-08-24T03:23:44.827Z,14.65
2023-08-24T03:24:44.814Z,14.53
2023-08-24T03:25:44.841Z,14.63
2023-08-24T03:26:44.800Z,14.50
2023-08-24T03:27:44.797Z,14.59
2023-08-24T03:28:44.787Z,14.63
2023-08-24T03:29:44.780Z,14.73
2023-08-24T03:30:44.796Z,14.65
2023-08-24T03:31:44.804Z,14.69
2023-08-24T03:32:44.813Z,14.65
2023-08-24T03:33:44.753Z,14.70
2023-08-24T03:34:44.772Z,14.69
2023-08-24T03:35:44.771Z,14.60
2023-08-24T03:36:44.716Z,14.65
2023-08-24T03:37:44.729Z,14.47
2023-08-24T03:38:44.700Z,14.65
2023-08-24T03:39:44.721Z,14.70
2023-08-24T03:40:44.693Z,14.59
2023-08-24T03:41:44.678Z,14.60
2023-08-24T03:42:44.672Z,14.53
2023-08-24T03:43:44.663Z,14.54
2023-08-24T03:44:44.684Z,14.50
2023-08-24T03:45:44.765Z,14.50
2023-08-24T03:46:44.771Z,14.62
2023-08-24T03:47:44.647Z,14.60
2023-08-24T03:48:44.656Z,14.58
2023-08-24T03:49:44.644Z,14.65
2023-08-24T03:50:44.618Z,14.59
2023-08-24T03:51:44.645Z,14.58
2023-08-24T03:52:44.615Z,14.55
2023-08-24T03:53:44.627Z,14.53
2023-08-24T03:54:44.575Z,14.48
2023-08-24T03:55:44.581Z,14.55
2023-08-24T03:56:44.566Z,14.43
2023-08-24T03:57:44.668Z,14.51
2023-08-24T03:58:44.578Z,14.53
2023-08-24T03:59:44.541Z,14.58
2023-08-24T04:00:44.534Z,14.50
2023-08-24T04:01:44.524Z,14.65
2023-08-24T04:02:44.547Z,14.65
2023-08-24T04:03:45.567Z,14.51
2023-08-24T04:04:44.525Z,14.47
2023-08-24T04:05:44.503Z,14.55
2023-08-24T04:06:44.484Z,14.59
2023-08-24T04:07:44.505Z,14.70
2023-08-24T04:08:44.478Z,14.63
2023-08-24T04:09:44.462Z,14.65
2023-08-24T04:10:44.450Z,14.77
2023-08-24T04:11:44.444Z,14.73
2023-08-24T04:12:44.464Z,14.66
2023-08-24T04:13:44.423Z,14.77
2023-08-24T04:14:44.421Z,14.79
2023-08-24T04:15:44.448Z,14.70
2023-08-24T04:16:44.412Z,14.77
2023-08-24T04:17:44.854Z,14.68
2023-08-24T04:18:45.390Z,14.77
2023-08-24T04:19:44.387Z,14.78
2023-08-24T04:20:44.382Z,14.82
2023-08-24T04:21:44.377Z,14.81
2023-08-24T04:22:44.389Z,14.82
2023-08-24T04:23:44.383Z,14.79
2023-08-24T04:24:44.359Z,14.79
2023-08-24T04:25:44.338Z,14.78
2023-08-24T04:26:44.339Z,14.88
2023-08-24T04:27:44.353Z,14.82
2023-08-24T04:28:44.329Z,14.82
2023-08-24T04:29:44.296Z,14.85
2023-08-24T04:30:45.343Z,14.73
2023-08-24T04:31:44.327Z,14.86
2023-08-24T04:32:44.350Z,14.86
2023-08-24T04:33:44.276Z,14.85
2023-08-24T04:34:44.284Z,14.79
2023-08-24T04:35:44.266Z,14.70
2023-08-24T04:36:44.290Z,14.73
2023-08-24T04:37:44.257Z,14.69
2023-08-24T04:38:44.244Z,14.72
2023-08-24T04:39:44.241Z,14.77
2023-08-24T04:40:44.226Z,14.79
2023-08-24T04:41:44.241Z,14.68
2023-08-24T04:42:44.214Z,14.68
2023-08-24T04:43:44.198Z,14.68
2023-08-24T04:44:44.205Z,14.70
2023-08-24T04:45:44.185Z,14.79
2023-08-24T04:46:44.233Z,14.68
2023-08-24T04:47:44.203Z,14.77
2023-08-24T04:48:44.162Z,14.68
2023-08-24T04:49:44.159Z,14.81
2023-08-24T04:50:46.519Z,14.77
2023-08-24T04:51:44.169Z,14.73
2023-08-24T04:52:44.141Z,14.79
2023-08-24T04:53:44.126Z,14.96
2023-08-24T04:54:44.112Z,15.00
2023-08-24T04:55:44.130Z,15.11
2023-08-24T04:56:44.088Z,15.46
2023-08-24T04:57:44.581Z,15.61
2023-08-24T04:58:44.087Z,15.82
2023-08-24T04:59:44.071Z,16.01
2023-08-24T05:00:44.097Z,16.20
2023-08-24T05:01:44.060Z,16.53
2023-08-24T05:02:44.103Z,16.64
2023-08-24T05:03:44.038Z,16.75
2023-08-24T05:04:44.063Z,16.87
2023-08-24T05:05:44.050Z,17.09
2023-08-24T05:06:44.020Z,17.38
2023-08-24T05:07:44.013Z,17.44
2023-08-24T05:08:44.012Z,17.46
2023-08-24T05:09:44.022Z,17.65
2023-08-24T05:10:44.004Z,17.57
2023-08-24T05:11:44.011Z,17.48
2023-08-24T05:12:43.978Z,17.31
2023-08-24T05:13:43.956Z,17.23
2023-08-24T05:14:43.981Z,17.14
2023-08-24T05:15:43.944Z,17.20
2023-08-24T05:16:43.996Z,17.19
2023-08-24T05:17:43.989Z,17.45
2023-08-24T05:18:44.043Z,17.39
2023-08-24T05:19:44.001Z,17.19
2023-08-24T05:20:43.908Z,16.99
2023-08-24T05:21:43.905Z,16.94
2023-08-24T05:22:43.887Z,16.79
2023-08-24T05:23:43.909Z,16.81
2023-08-24T05:24:43.887Z,16.60
2023-08-24T05:25:45.911Z,16.64
2023-08-24T05:26:44.854Z,16.61
2023-08-24T05:27:43.865Z,16.58
2023-08-24T05:28:43.878Z,16.91
2023-08-24T05:29:43.845Z,17.26
2023-08-24T05:30:43.858Z,17.74
2023-08-24T05:31:43.813Z,17.70
2023-08-24T05:32:43.843Z,17.52
2023-08-24T05:33:43.814Z,17.24
2023-08-24T05:34:44.793Z,17.16
2023-08-24T05:35:43.791Z,17.11
2023-08-24T05:36:43.781Z,17.09
2023-08-24T05:37:43.845Z,16.93
2023-08-24T05:38:59.397Z,16.97
2023-08-24T05:39:45.780Z,16.90
2023-08-24T05:40:43.749Z,16.94
2023-08-24T05:41:43.740Z,17.04
2023-08-24T05:42:43.763Z,17.01
2023-08-24T05:43:43.726Z,16.97
2023-08-24T05:44:43.716Z,16.99
2023-08-24T05:45:43.711Z,17.02
2023-08-24T05:46:43.728Z,16.99
2023-08-24T05:47:43.855Z,16.91
2023-08-24T05:48:43.685Z,16.96
2023-08-24T05:49:43.675Z,17.01
2023-08-24T05:50:43.669Z,17.16
2023-08-24T05:51:43.681Z,17.38
2023-08-24T05:52:43.648Z,17.57
2023-08-24T05:53:43.641Z,17.68
2023-08-24T05:54:43.642Z,17.79
2023-08-24T05:55:43.635Z,17.54
2023-08-24T05:56:43.641Z,17.54
2023-08-24T05:57:43.617Z,17.44
2023-08-24T05:58:43.604Z,17.34
2023-08-24T05:59:43.607Z,17.34
2023-08-24T06:00:43.624Z,17.26
2023-08-24T06:01:43.692Z,17.34
2023-08-24T06:02:43.609Z,17.15
2023-08-24T06:03:43.623Z,17.20
2023-08-24T06:04:43.561Z,17.19
2023-08-24T06:05:43.578Z,17.09
2023-08-24T06:06:43.552Z,17.14
2023-08-24T06:07:43.527Z,17.09
2023-08-24T06:08:43.552Z,17.08
2023-08-24T06:09:43.517Z,16.96
2023-08-24T06:10:43.523Z,16.97
2023-08-24T06:11:43.507Z,16.94
2023-08-24T06:12:43.494Z,16.93
2023-08-24T06:13:43.498Z,17.01
2023-08-24T06:14:43.483Z,16.94
2023-08-24T06:15:43.504Z,17.04
2023-08-24T06:16:43.462Z,17.14
2023-08-24T06:17:43.480Z,17.04
2023-08-24T06:18:43.450Z,17.16
2023-08-24T06:19:43.467Z,17.15
2023-08-24T06:20:43.459Z,17.19
2023-08-24T06:21:43.444Z,17.24
2023-08-24T06:22:43.423Z,17.24
2023-08-24T06:23:43.405Z,17.31
2023-08-24T06:24:43.424Z,17.36
2023-08-24T06:25:43.419Z,17.33
2023-08-24T06:26:43.390Z,17.41
2023-08-24T06:27:43.380Z,17.45
2023-08-24T06:28:43.373Z,17.57
2023-08-24T06:29:43.393Z,17.71
2023-08-24T06:30:43.350Z,17.65
2023-08-24T06:31:43.392Z,17.60
2023-08-24T06:32:43.416Z,17.76
2023-08-24T06:33:43.336Z,17.76
2023-08-24T06:34:44.974Z,18.10
2023-08-24T06:35:43.326Z,18.31
2023-08-24T06:36:43.314Z,18.63
2023-08-24T06:37:43.299Z,18.88
2023-08-24T06:38:43.320Z,18.95
2023-08-24T06:39:43.315Z,19.07
2023-08-24T06:40:43.283Z,19.07
2023-08-24T06:41:43.282Z,19.15
2023-08-24T06:42:43.262Z,19.26
2023-08-24T06:43:43.282Z,19.26
2023-08-24T06:44:43.244Z,19.16
2023-08-24T06:45:43.242Z,19.16
2023-08-24T06:46:43.228Z,19.30
2023-08-24T06:47:43.250Z,19.41
2023-08-24T06:48:43.250Z,19.41
2023-08-24T06:49:43.235Z,19.44
2023-08-24T06:50:43.200Z,19.19
2023-08-24T06:51:43.182Z,19.37
2023-08-24T06:52:43.185Z,19.19
2023-08-24T06:53:43.201Z,19.31
2023-08-24T06:54:43.177Z,19.31
2023-08-24T06:55:43.158Z,19.34
2023-08-24T06:56:43.148Z,19.27
2023-08-24T06:57:43.141Z,19.39
2023-08-24T06:58:43.164Z,19.40
2023-08-24T06:59:43.127Z,19.30
2023-08-24T07:00:43.118Z,19.34
2023-08-24T07:01:43.130Z,19.52
2023-08-24T07:02:43.159Z,19.34
2023-08-24T07:03:43.173Z,19.47
2023-08-24T07:04:43.103Z,19.41
2023-08-24T07:05:43.084Z,19.41
2023-08-24T07:06:43.077Z,19.37
2023-08-24T07:07:43.100Z,19.30
2023-08-24T07:08:43.078Z,19.40
2023-08-24T07:09:43.057Z,19.40
2023-08-24T07:10:43.042Z,19.34
2023-08-24T07:11:43.041Z,19.44
2023-08-24T07:12:43.084Z,19.41
2023-08-24T07:13:43.026Z,19.36
2023-08-24T07:14:43.030Z,19.44
2023-08-24T07:15:43.036Z,19.21
2023-08-24T07:16:43.041Z,19.22
2023-08-24T07:17:43.034Z,19.21
2023-08-24T07:18:42.989Z,19.30
2023-08-24T07:19:42.989Z,19.29
2023-08-24T07:20:42.969Z,19.29
2023-08-24T07:21:42.998Z,19.24
2023-08-24T07:22:42.958Z,19.14
2023-08-24T07:23:43.944Z,19.11
2023-08-24T07:24:46.020Z,19.11
2023-08-24T07:25:43.930Z,18.90
2023-08-24T07:26:42.962Z,18.84
2023-08-24T07:27:42.919Z,18.95
2023-08-24T07:28:42.906Z,18.77
2023-08-24T07:29:42.891Z,18.78
2023-08-24T07:30:43.928Z,18.88
2023-08-24T07:31:43.003Z,18.71
2023-08-24T07:32:42.927Z,18.81
2023-08-24T07:33:42.880Z,18.81
2023-08-24T07:34:42.878Z,18.92
2023-08-24T07:35:42.881Z,18.88
2023-08-24T07:36:42.880Z,18.89
2023-08-24T07:37:42.844Z,18.88
2023-08-24T07:38:42.842Z,18.86
2023-08-24T07:39:42.833Z,18.80
2023-08-24T07:40:42.847Z,18.75
2023-08-24T07:41:42.818Z,18.75
2023-08-24T07:42:42.806Z,18.63
2023-08-24T07:43:42.864Z,18.75
2023-08-24T07:44:42.783Z,18.74
2023-08-24T07:45:42.849Z,18.89
2023-08-24T07:46:42.782Z,18.92
2023-08-24T07:47:42.880Z,18.84
2023-08-24T07:48:42.759Z,18.75
2023-08-24T07:49:42.750Z,18.71
2023-08-24T07:50:42.789Z,18.74
2023-08-24T07:51:42.779Z,18.75
2023-08-24T07:52:42.725Z,18.80
2023-08-24T07:53:42.719Z,18.84
2023-08-24T07:54:42.739Z,18.88
2023-08-24T07:55:42.739Z,18.80
2023-08-24T07:56:42.697Z,18.83
2023-08-24T07:57:42.690Z,18.86
2023-08-24T07:58:42.676Z,18.80
2023-08-24T07:59:43.701Z,18.74
2023-08-24T08:00:42.669Z,18.65
2023-08-24T08:01:42.697Z,18.83
2023-08-24T08:02:42.726Z,18.71
2023-08-24T08:03:42.688Z,18.71
2023-08-24T08:04:42.685Z,18.81
2023-08-24T08:05:42.635Z,18.90
2023-08-24T08:06:42.621Z,18.88
2023-08-24T08:07:42.615Z,19.00
2023-08-24T08:08:42.633Z,18.95
2023-08-24T08:09:42.620Z,18.99
2023-08-24T08:10:42.584Z,19.07
2023-08-24T08:11:42.592Z,19.09
2023-08-24T08:12:42.580Z,19.29
2023-08-24T08:13:42.594Z,19.41
2023-08-24T08:14:42.557Z,19.37
2023-08-24T08:15:42.581Z,19.44
2023-08-24T08:16:42.550Z,19.41
2023-08-24T08:17:42.570Z,19.66
2023-08-24T08:18:42.557Z,19.81
2023-08-24T08:19:42.550Z,19.69
2023-08-24T08:20:42.552Z,19.71
2023-08-24T08:21:42.506Z,19.85
2023-08-24T08:22:42.674Z,19.88
2023-08-24T08:23:42.545Z,20.11
2023-08-24T08:24:42.564Z,20.21
2023-08-24T08:25:42.495Z,20.36
2023-08-24T08:26:42.513Z,20.40
2023-08-24T08:27:42.553Z,20.60
2023-08-24T08:28:42.545Z,20.70
2023-08-24T08:29:42.444Z,20.59
2023-08-24T08:30:42.582Z,20.66
2023-08-24T08:31:42.578Z,20.66
2023-08-24T08:32:42.564Z,20.69
2023-08-24T08:33:42.427Z,20.80
2023-08-24T08:34:42.413Z,20.90
2023-08-24T08:35:42.423Z,21.05
2023-08-24T08:36:42.415Z,21.27
2023-08-24T08:37:42.409Z,21.36
2023-08-24T08:38:42.372Z,21.33
2023-08-24T08:39:42.386Z,21.35
2023-08-24T08:40:42.370Z,21.22
2023-08-24T08:41:42.386Z,21.33
2023-08-24T08:42:42.374Z,21.57
2023-08-24T08:43:42.344Z,21.66
2023-08-24T08:44:42.381Z,21.30
2023-08-24T08:45:42.321Z,21.15
2023-08-24T08:46:42.412Z,20.99
2023-08-24T08:47:42.566Z,21.37
2023-08-24T08:48:42.327Z,21.72
2023-08-24T08:49:42.289Z,22.10
2023-08-24T08:50:42.293Z,22.44
2023-08-24T08:51:42.308Z,22.65
2023-08-24T08:52:42.289Z,22.87
2023-08-24T08:53:42.275Z,23.05
2023-08-24T08:54:42.260Z,22.85
2023-08-24T08:55:42.292Z,22.91
2023-08-24T08:56:42.262Z,23.13
2023-08-24T08:57:42.236Z,23.31
2023-08-24T08:58:42.223Z,23.40
2023-08-24T08:59:43.217Z,23.39
2023-08-24T09:00:42.271Z,23.36
2023-08-24T09:01:42.227Z,23.34
2023-08-24T09:02:42.244Z,23.40
2023-08-24T09:03:42.216Z,23.61
2023-08-24T09:04:42.208Z,23.59
2023-08-24T09:05:43.206Z,23.46
2023-08-24T09:06:42.163Z,23.31
2023-08-24T09:07:42.161Z,23.27
2023-08-24T09:08:42.146Z,23.10
2023-08-24T09:09:42.156Z,23.09
2023-08-24T09:10:42.163Z,23.21
2023-08-24T09:11:42.148Z,22.98
2023-08-24T09:12:42.121Z,22.99
2023-08-24T09:13:42.113Z,23.06
2023-08-24T09:14:42.107Z,23.32
2023-08-24T09:15:42.141Z,23.50
2023-08-24T09:16:42.132Z,23.56
2023-08-24T09:17:42.108Z,23.65
2023-08-24T09:18:42.077Z,23.83
2023-08-24T09:19:42.096Z,23.92
2023-08-24T09:20:42.088Z,24.01
2023-08-24T09:21:42.058Z,24.16
2023-08-24T09:22:42.043Z,24.10
2023-08-24T09:23:42.049Z,23.91
2023-08-24T09:24:42.054Z,23.86
2023-08-24T09:25:42.030Z,23.71
2023-08-24T09:26:42.018Z,23.69
2023-08-24T09:27:42.010Z,23.68
2023-08-24T09:28:42.001Z,23.81
2023-08-24T09:29:42.012Z,24.10
2023-08-24T09:30:42.016Z,24.03
2023-08-24T09:31:41.963Z,24.03
2023-08-24T09:32:42.008Z,23.96
2023-08-24T09:33:41.994Z,24.05
2023-08-24T09:34:41.979Z,24.14
2023-08-24T09:35:41.939Z,24.38
2023-08-24T09:36:41.942Z,24.53
2023-08-24T09:37:41.918Z,24.74
2023-08-24T09:38:41.939Z,24.80
2023-08-24T09:39:41.934Z,24.98
2023-08-24T09:40:41.903Z,24.99
2023-08-24T09:41:41.911Z,25.29
2023-08-24T09:42:41.886Z,25.41
2023-08-24T09:43:41.914Z,25.48
2023-08-24T09:44:41.868Z,25.50
2023-08-24T09:45:41.871Z,25.59
2023-08-24T09:46:41.876Z,25.73
2023-08-24T09:47:41.862Z,25.58
2023-08-24T09:48:41.873Z,25.55
2023-08-24T09:49:41.835Z,25.62
2023-08-24T09:50:41.830Z,25.58
2023-08-24T09:51:41.845Z,25.58
2023-08-24T09:52:41.820Z,25.60
2023-08-24T09:53:41.849Z,25.48
2023-08-24T09:54:41.800Z,25.50
2023-08-24T09:55:41.793Z,25.55
2023-08-24T09:56:41.809Z,25.48
2023-08-24T09:57:41.818Z,25.65
2023-08-24T09:58:42.791Z,25.68
2023-08-24T09:59:41.758Z,25.80
2023-08-24T10:00:41.750Z,25.75
2023-08-24T10:01:42.681Z,25.73
2023-08-24T10:02:41.836Z,25.75
2023-08-24T10:03:41.828Z,25.84
2023-08-24T10:04:41.729Z,25.75
2023-08-24T10:06:42.726Z,25.87
2023-08-24T10:07:41.717Z,25.87
2023-08-24T10:08:41.686Z,25.50
2023-08-24T10:09:41.679Z,25.16
2023-08-24T10:10:41.672Z,24.86
2023-08-24T10:11:41.692Z,24.92
2023-08-24T10:12:41.680Z,25.33
2023-08-24T10:13:41.655Z,25.60
2023-08-24T10:14:41.648Z,25.80
2023-08-24T10:15:41.681Z,25.95
2023-08-24T10:16:41.696Z,25.85
2023-08-24T10:17:41.647Z,25.90
2023-08-24T10:18:41.618Z,25.88
2023-08-24T10:19:41.609Z,26.16
2023-08-24T10:20:41.599Z,26.43
2023-08-24T10:21:41.631Z,26.65
2023-08-24T10:22:41.613Z,26.47
2023-08-24T10:23:41.578Z,26.60
2023-08-24T10:24:41.600Z,26.78
2023-08-24T10:25:41.586Z,26.99
2023-08-24T10:26:41.586Z,27.20
2023-08-24T10:27:41.553Z,27.27
2023-08-24T10:28:41.538Z,27.36
2023-08-24T10:29:41.544Z,27.44
2023-08-24T10:30:41.591Z,27.27
2023-08-24T10:31:41.581Z,27.32
2023-08-24T10:32:41.642Z,27.27
2023-08-24T10:33:41.529Z,27.29
2023-08-24T10:34:41.492Z,27.37
2023-08-24T10:35:41.517Z,27.45
2023-08-24T10:36:41.575Z,27.54
2023-08-24T10:37:41.569Z,27.67
2023-08-24T10:38:41.463Z,27.51
2023-08-24T10:39:41.532Z,27.64
2023-08-24T10:40:41.478Z,27.78
2023-08-24T10:41:41.441Z,27.71
2023-08-24T10:42:41.441Z,27.83
2023-08-24T10:43:41.426Z,27.67
2023-08-24T10:44:41.450Z,27.87
2023-08-24T10:45:41.502Z,28.20
2023-08-24T10:46:41.415Z,28.35
2023-08-24T10:47:41.444Z,28.42
2023-08-24T10:48:41.386Z,28.39
2023-08-24T10:49:41.410Z,28.26
2023-08-24T10:50:41.393Z,28.32
2023-08-24T10:51:41.369Z,28.38
2023-08-24T10:52:41.374Z,28.54
2023-08-24T10:53:41.375Z,28.64
2023-08-24T10:54:41.372Z,28.85
2023-08-24T10:55:41.348Z,29.01
2023-08-24T10:56:41.441Z,29.05
2023-08-24T10:57:42.198Z,28.72
2023-08-24T10:58:41.350Z,28.69
2023-08-24T10:59:51.005Z,28.82
2023-08-24T11:00:43.301Z,28.72
2023-08-24T11:01:41.354Z,28.63
2023-08-24T11:02:41.362Z,28.70
2023-08-24T11:03:41.366Z,28.66
2023-08-24T11:04:41.277Z,28.76
2023-08-24T11:05:41.263Z,28.70
2023-08-24T11:06:41.266Z,28.62
2023-08-24T11:07:41.262Z,28.54
2023-08-24T11:08:41.270Z,28.60
2023-08-24T11:09:41.234Z,28.67
2023-08-24T11:10:41.275Z,28.72
2023-08-24T11:11:41.222Z,28.74
2023-08-24T11:12:41.217Z,28.70
2023-08-24T11:14:14.783Z,28.67
2023-08-24T11:14:41.188Z,28.81
2023-08-24T11:15:41.208Z,28.96
2023-08-24T11:16:41.193Z,29.02
2023-08-24T11:17:41.200Z,28.96
2023-08-24T11:18:41.195Z,28.82
2023-08-24T11:19:41.172Z,28.74
2023-08-24T11:20:41.249Z,28.82
2023-08-24T11:21:41.154Z,28.97
2023-08-24T11:22:41.168Z,28.79
2023-08-24T11:23:41.132Z,28.76
2023-08-24T11:24:41.157Z,28.42
2023-08-24T11:25:41.120Z,28.27
2023-08-24T11:26:41.120Z,28.47
2023-08-24T11:27:41.126Z,28.70
2023-08-24T11:28:41.092Z,28.89
2023-08-24T11:29:41.094Z,29.08
2023-08-24T11:30:41.090Z,29.22
2023-08-24T11:31:43.005Z,29.27
2023-08-24T11:32:42.115Z,29.19
2023-08-24T11:33:41.057Z,29.10
2023-08-24T11:34:41.052Z,28.94
2023-08-24T11:35:41.080Z,29.07
2023-08-24T11:36:41.054Z,28.98
2023-08-24T11:37:41.049Z,28.97
2023-08-24T11:38:41.039Z,28.89
2023-08-24T11:39:41.015Z,28.96
2023-08-24T11:40:41.006Z,28.86
2023-08-24T11:41:41.030Z,28.54
2023-08-24T11:42:40.993Z,28.66
2023-08-24T11:43:40.987Z,28.74
2023-08-24T11:44:40.971Z,28.91
2023-08-24T11:45:40.961Z,28.86
2023-08-24T11:46:41.016Z,28.93
2023-08-24T11:47:40.990Z,28.76
2023-08-24T11:48:40.940Z,28.88
2023-08-24T11:49:40.928Z,29.14
2023-08-24T11:50:40.946Z,29.41
2023-08-24T11:51:43.643Z,29.66
2023-08-24T11:52:41.920Z,29.76
2023-08-24T11:53:40.908Z,29.84
2023-08-24T11:54:40.914Z,30.03
2023-08-24T11:55:45.814Z,29.72
2023-08-24T11:56:42.873Z,29.32
2023-08-24T11:57:41.881Z,29.16
2023-08-24T11:58:40.867Z,29.07
2023-08-24T11:59:40.872Z,29.24
2023-08-24T12:00:40.946Z,29.05
2023-08-24T12:01:40.862Z,29.10
2023-08-24T12:02:40.859Z,29.10
2023-08-24T12:03:40.964Z,28.94
2023-08-24T12:04:40.825Z,28.88
2023-08-24T12:05:40.834Z,28.86
2023-08-24T12:06:40.800Z,28.86
2023-08-24T12:07:40.798Z,29.16
2023-08-24T12:08:40.798Z,29.35
2023-08-24T12:09:40.801Z,29.49
2023-08-24T12:10:40.805Z,29.60
2023-08-24T12:11:40.773Z,29.59
2023-08-24T12:12:40.849Z,29.68
2023-08-24T12:13:40.763Z,29.78
2023-08-24T12:14:41.803Z,29.72
2023-08-24T12:15:41.771Z,29.73
2023-08-24T12:16:40.745Z,29.72
2023-08-24T12:17:40.753Z,29.68
2023-08-24T12:18:40.720Z,29.82
2023-08-24T12:19:40.712Z,29.98
2023-08-24T12:20:40.728Z,29.95
2023-08-24T12:21:40.697Z,29.90
2023-08-24T12:22:40.694Z,29.72
2023-08-24T12:23:40.690Z,29.71
2023-08-24T12:24:40.706Z,29.63
2023-08-24T12:25:40.697Z,29.47
2023-08-24T12:26:40.663Z,29.27
2023-08-24T12:27:40.694Z,29.23
2023-08-24T12:28:40.654Z,29.26
2023-08-24T12:29:40.666Z,29.24
2023-08-24T12:30:40.662Z,29.24
2023-08-24T12:31:40.618Z,29.20
2023-08-24T12:32:40.639Z,29.24
2023-08-24T12:33:40.604Z,29.05
2023-08-24T12:34:40.621Z,29.10
2023-08-24T12:35:40.591Z,29.05
2023-08-24T12:36:40.710Z,28.96
2023-08-24T12:37:40.579Z,28.85
2023-08-24T12:38:40.602Z,28.84
2023-08-24T12:39:40.578Z,28.89
2023-08-24T12:40:40.542Z,28.82
2023-08-24T12:41:40.541Z,28.79
2023-08-24T12:42:40.540Z,28.74
2023-08-24T12:43:41.573Z,28.78
2023-08-24T12:44:41.545Z,28.85
2023-08-24T12:45:40.526Z,28.93
2023-08-24T12:46:40.626Z,28.96
2023-08-24T12:47:40.570Z,28.97
2023-08-24T12:48:40.516Z,29.16
2023-08-24T12:49:40.523Z,29.39
2023-08-24T12:50:40.484Z,29.50
2023-08-24T12:51:40.502Z,29.59
2023-08-24T12:52:40.457Z,29.73
2023-08-24T12:53:40.485Z,29.88